sensor_id;sensor_type;location;lat;lon;timestamp;P1;durP1;ratioP1;P2;durP2;ratioP2
76714;SDS011;65644;44.990;20.288;2023-05-10T00:01:08;9.10;;;7.82;;
76714;SDS011;65644;44.990;20.288;2023-05-10T00:03:35;10.73;;;8.93;;
76714;SDS011;65644;44.990;20.288;2023-05-10T00:06:01;9.45;;;8.38;;
76714;SDS011;65644;44.990;20.288;2023-05-10T00:08:27;11.88;;;9.27;;
76714;SDS011;65644;44.990;20.288;2023-05-10T00:10:53;8.93;;;8.02;;
76714;SDS011;65644;44.990;20.288;2023-05-10T00:13:19;9.13;;;8.23;;
76714;SDS011;65644;44.990;20.288;2023-05-10T00:15:45;10.07;;;8.40;;
76714;SDS011;65644;44.990;20.288;2023-05-10T00:18:11;10.30;;;8.10;;
76714;SDS011;65644;44.990;20.288;2023-05-10T00:20:37;10.88;;;9.75;;
76714;SDS011;65644;44.990;20.288;2023-05-10T00:23:03;9.52;;;8.63;;
76714;SDS011;65644;44.990;20.288;2023-05-10T00:25:29;10.05;;;8.35;;
76714;SDS011;65644;44.990;20.288;2023-05-10T00:27:55;10.52;;;8.77;;
76714;SDS011;65644;44.990;20.288;2023-05-10T00:30:22;9.90;;;8.98;;
76714;SDS011;65644;44.990;20.288;2023-05-10T00:32:48;9.35;;;8.38;;
76714;SDS011;65644;44.990;20.288;2023-05-10T00:35:15;11.93;;;8.82;;
76714;SDS011;65644;44.990;20.288;2023-05-10T00:37:41;10.60;;;9.15;;
76714;SDS011;65644;44.990;20.288;2023-05-10T00:40:07;9.45;;;8.55;;
76714;SDS011;65644;44.990;20.288;2023-05-10T00:42:33;9.25;;;8.35;;
76714;SDS011;65644;44.990;20.288;2023-05-10T00:44:59;9.20;;;8.25;;
76714;SDS011;65644;44.990;20.288;2023-05-10T00:47:25;10.18;;;8.52;;
76714;SDS011;65644;44.990;20.288;2023-05-10T00:49:51;10.95;;;9.02;;
76714;SDS011;65644;44.990;20.288;2023-05-10T00:52:18;9.18;;;8.35;;
76714;SDS011;65644;44.990;20.288;2023-05-10T00:54:44;11.10;;;8.90;;
76714;SDS011;65644;44.990;20.288;2023-05-10T00:57:10;9.60;;;8.70;;
76714;SDS011;65644;44.990;20.288;2023-05-10T00:59:36;10.65;;;8.73;;
76714;SDS011;65644;44.990;20.288;2023-05-10T01:02:02;10.68;;;9.07;;
76714;SDS011;65644;44.990;20.288;2023-05-10T01:04:28;12.25;;;9.48;;
76714;SDS011;65644;44.990;20.288;2023-05-10T01:06:55;11.75;;;9.07;;
76714;SDS011;65644;44.990;20.288;2023-05-10T01:09:22;10.50;;;8.73;;
76714;SDS011;65644;44.990;20.288;2023-05-10T01:11:48;11.82;;;9.52;;
76714;SDS011;65644;44.990;20.288;2023-05-10T01:14:15;10.88;;;8.80;;
76714;SDS011;65644;44.990;20.288;2023-05-10T01:16:43;10.30;;;9.20;;
76714;SDS011;65644;44.990;20.288;2023-05-10T01:19:22;9.98;;;8.98;;
76714;SDS011;65644;44.990;20.288;2023-05-10T01:21:49;9.70;;;8.80;;
76714;SDS011;65644;44.990;20.288;2023-05-10T01:37:13;10.15;;;9.15;;
76714;SDS011;65644;44.990;20.288;2023-05-10T01:39:44;9.80;;;8.85;;
76714;SDS011;65644;44.990;20.288;2023-05-10T01:42:14;9.02;;;8.13;;
76714;SDS011;65644;44.990;20.288;2023-05-10T01:44:49;9.88;;;8.60;;
76714;SDS011;65644;44.990;20.288;2023-05-10T01:47:20;9.85;;;8.57;;
76714;SDS011;65644;44.990;20.288;2023-05-10T01:49:52;9.50;;;8.60;;
76714;SDS011;65644;44.990;20.288;2023-05-10T01:52:20;9.07;;;8.15;;
76714;SDS011;65644;44.990;20.288;2023-05-10T01:54:49;9.02;;;8.13;;
76714;SDS011;65644;44.990;20.288;2023-05-10T01:57:17;10.52;;;8.45;;
76714;SDS011;65644;44.990;20.288;2023-05-10T01:59:45;9.77;;;8.77;;
76714;SDS011;65644;44.990;20.288;2023-05-10T02:02:13;10.52;;;8.77;;
76714;SDS011;65644;44.990;20.288;2023-05-10T02:04:40;9.68;;;8.57;;
76714;SDS011;65644;44.990;20.288;2023-05-10T02:07:06;9.48;;;8.40;;
76714;SDS011;65644;44.990;20.288;2023-05-10T02:09:34;9.00;;;8.10;;
76714;SDS011;65644;44.990;20.288;2023-05-10T02:12:01;8.90;;;8.00;;
76714;SDS011;65644;44.990;20.288;2023-05-10T02:14:28;8.32;;;7.63;;
76714;SDS011;65644;44.990;20.288;2023-05-10T02:16:54;11.98;;;8.35;;
76714;SDS011;65644;44.990;20.288;2023-05-10T02:19:21;9.07;;;8.15;;
76714;SDS011;65644;44.990;20.288;2023-05-10T02:21:47;9.70;;;8.70;;
76714;SDS011;65644;44.990;20.288;2023-05-10T02:24:16;9.98;;;8.65;;
76714;SDS011;65644;44.990;20.288;2023-05-10T02:26:43;9.85;;;8.85;;
76714;SDS011;65644;44.990;20.288;2023-05-10T02:29:11;9.88;;;8.20;;
76714;SDS011;65644;44.990;20.288;2023-05-10T02:31:38;10.05;;;9.10;;
76714;SDS011;65644;44.990;20.288;2023-05-10T02:34:05;9.63;;;8.73;;
76714;SDS011;65644;44.990;20.288;2023-05-10T02:36:31;9.82;;;8.82;;
76714;SDS011;65644;44.990;20.288;2023-05-10T02:38:58;12.48;;;9.02;;
76714;SDS011;65644;44.990;20.288;2023-05-10T02:41:25;10.60;;;9.50;;
76714;SDS011;65644;44.990;20.288;2023-05-10T02:43:51;11.82;;;9.02;;
76714;SDS011;65644;44.990;20.288;2023-05-10T02:46:20;11.20;;;8.88;;
76714;SDS011;65644;44.990;20.288;2023-05-10T02:48:46;11.77;;;9.63;;
76714;SDS011;65644;44.990;20.288;2023-05-10T02:51:13;11.15;;;9.60;;
76714;SDS011;65644;44.990;20.288;2023-05-10T02:53:42;10.80;;;9.38;;
76714;SDS011;65644;44.990;20.288;2023-05-10T02:56:13;10.77;;;9.65;;
76714;SDS011;65644;44.990;20.288;2023-05-10T02:58:42;11.32;;;9.75;;
76714;SDS011;65644;44.990;20.288;2023-05-10T03:01:08;11.43;;;10.13;;
76714;SDS011;65644;44.990;20.288;2023-05-10T03:03:34;11.43;;;10.05;;
76714;SDS011;65644;44.990;20.288;2023-05-10T03:06:00;10.15;;;8.98;;
76714;SDS011;65644;44.990;20.288;2023-05-10T03:08:26;11.13;;;10.02;;
76714;SDS011;65644;44.990;20.288;2023-05-10T03:10:56;10.20;;;9.20;;
76714;SDS011;65644;44.990;20.288;2023-05-10T03:16:24;11.18;;;9.02;;
76714;SDS011;65644;44.990;20.288;2023-05-10T03:18:54;11.07;;;9.75;;
76714;SDS011;65644;44.990;20.288;2023-05-10T03:21:21;11.80;;;9.32;;
76714;SDS011;65644;44.990;20.288;2023-05-10T03:23:50;10.57;;;9.02;;
76714;SDS011;65644;44.990;20.288;2023-05-10T03:26:18;11.32;;;9.07;;
76714;SDS011;65644;44.990;20.288;2023-05-10T03:28:47;10.23;;;9.32;;
76714;SDS011;65644;44.990;20.288;2023-05-10T03:31:13;10.23;;;9.07;;
76714;SDS011;65644;44.990;20.288;2023-05-10T03:33:49;10.45;;;9.15;;
76714;SDS011;65644;44.990;20.288;2023-05-10T03:36:15;11.18;;;9.00;;
76714;SDS011;65644;44.990;20.288;2023-05-10T03:38:41;10.55;;;9.45;;
76714;SDS011;65644;44.990;20.288;2023-05-10T03:41:07;10.70;;;9.52;;
76714;SDS011;65644;44.990;20.288;2023-05-10T03:43:33;11.27;;;9.10;;
76714;SDS011;65644;44.990;20.288;2023-05-10T03:46:03;9.93;;;8.95;;
76714;SDS011;65644;44.990;20.288;2023-05-10T03:48:29;11.02;;;9.38;;
76714;SDS011;65644;44.990;20.288;2023-05-10T03:50:55;10.65;;;9.50;;
76714;SDS011;65644;44.990;20.288;2023-05-10T03:53:21;13.07;;;9.50;;
76714;SDS011;65644;44.990;20.288;2023-05-10T03:55:48;11.57;;;9.57;;
76714;SDS011;65644;44.990;20.288;2023-05-10T03:58:14;10.73;;;9.60;;
76714;SDS011;65644;44.990;20.288;2023-05-10T04:00:40;12.63;;;9.75;;
76714;SDS011;65644;44.990;20.288;2023-05-10T04:03:09;14.85;;;10.55;;
76714;SDS011;65644;44.990;20.288;2023-05-10T04:05:35;12.43;;;9.82;;
76714;SDS011;65644;44.990;20.288;2023-05-10T04:08:01;12.27;;;10.35;;
76714;SDS011;65644;44.990;20.288;2023-05-10T04:10:27;14.63;;;10.27;;
76714;SDS011;65644;44.990;20.288;2023-05-10T04:12:53;18.42;;;11.93;;
76714;SDS011;65644;44.990;20.288;2023-05-10T04:15:20;38.35;;;19.90;;
76714;SDS011;65644;44.990;20.288;2023-05-10T04:17:46;24.20;;;14.85;;
76714;SDS011;65644;44.990;20.288;2023-05-10T04:20:12;14.80;;;11.45;;
76714;SDS011;65644;44.990;20.288;2023-05-10T04:22:38;15.35;;;11.45;;
76714;SDS011;65644;44.990;20.288;2023-05-10T04:25:04;14.65;;;12.43;;
76714;SDS011;65644;44.990;20.288;2023-05-10T04:27:31;13.85;;;10.90;;
76714;SDS011;65644;44.990;20.288;2023-05-10T04:29:57;14.05;;;10.23;;
76714;SDS011;65644;44.990;20.288;2023-05-10T04:32:23;13.48;;;12.07;;
76714;SDS011;65644;44.990;20.288;2023-05-10T04:34:49;14.48;;;13.07;;
76714;SDS011;65644;44.990;20.288;2023-05-10T04:37:18;17.40;;;12.05;;
76714;SDS011;65644;44.990;20.288;2023-05-10T04:39:44;14.43;;;12.30;;
76714;SDS011;65644;44.990;20.288;2023-05-10T04:42:11;13.27;;;10.50;;
76714;SDS011;65644;44.990;20.288;2023-05-10T04:44:37;15.35;;;11.63;;
76714;SDS011;65644;44.990;20.288;2023-05-10T04:47:03;14.10;;;10.35;;
76714;SDS011;65644;44.990;20.288;2023-05-10T04:49:29;13.10;;;11.80;;
76714;SDS011;65644;44.990;20.288;2023-05-10T04:51:55;12.18;;;10.70;;
76714;SDS011;65644;44.990;20.288;2023-05-10T04:54:21;16.40;;;12.73;;
76714;SDS011;65644;44.990;20.288;2023-05-10T04:56:47;14.05;;;11.07;;
76714;SDS011;65644;44.990;20.288;2023-05-10T04:59:13;12.00;;;10.80;;
76714;SDS011;65644;44.990;20.288;2023-05-10T05:01:39;11.40;;;10.20;;
76714;SDS011;65644;44.990;20.288;2023-05-10T05:04:05;11.88;;;10.50;;
76714;SDS011;65644;44.990;20.288;2023-05-10T05:06:32;12.13;;;9.52;;
76714;SDS011;65644;44.990;20.288;2023-05-10T05:08:58;16.67;;;11.63;;
76714;SDS011;65644;44.990;20.288;2023-05-10T05:11:24;14.93;;;10.65;;
76714;SDS011;65644;44.990;20.288;2023-05-10T05:13:50;12.93;;;11.25;;
76714;SDS011;65644;44.990;20.288;2023-05-10T05:16:16;19.13;;;13.48;;
76714;SDS011;65644;44.990;20.288;2023-05-10T05:18:43;12.38;;;10.20;;
76714;SDS011;65644;44.990;20.288;2023-05-10T05:21:15;16.30;;;10.63;;
76714;SDS011;65644;44.990;20.288;2023-05-10T05:23:41;17.60;;;12.40;;
76714;SDS011;65644;44.990;20.288;2023-05-10T05:26:07;13.98;;;12.18;;
76714;SDS011;65644;44.990;20.288;2023-05-10T05:28:33;12.63;;;11.25;;
76714;SDS011;65644;44.990;20.288;2023-05-10T05:31:02;14.90;;;10.43;;
76714;SDS011;65644;44.990;20.288;2023-05-10T05:33:28;15.43;;;11.07;;
76714;SDS011;65644;44.990;20.288;2023-05-10T05:35:54;18.60;;;11.93;;
76714;SDS011;65644;44.990;20.288;2023-05-10T05:38:20;12.95;;;10.13;;
76714;SDS011;65644;44.990;20.288;2023-05-10T05:40:46;17.38;;;12.43;;
76714;SDS011;65644;44.990;20.288;2023-05-10T05:43:12;12.57;;;9.70;;
76714;SDS011;65644;44.990;20.288;2023-05-10T05:45:38;11.07;;;9.88;;
76714;SDS011;65644;44.990;20.288;2023-05-10T05:48:05;13.95;;;11.57;;
76714;SDS011;65644;44.990;20.288;2023-05-10T05:50:31;13.45;;;10.30;;
76714;SDS011;65644;44.990;20.288;2023-05-10T05:52:57;10.07;;;9.05;;
76714;SDS011;65644;44.990;20.288;2023-05-10T05:55:23;12.73;;;10.05;;
76714;SDS011;65644;44.990;20.288;2023-05-10T05:57:50;14.73;;;11.15;;
76714;SDS011;65644;44.990;20.288;2023-05-10T06:00:16;13.18;;;10.57;;
76714;SDS011;65644;44.990;20.288;2023-05-10T06:02:43;11.20;;;8.55;;
76714;SDS011;65644;44.990;20.288;2023-05-10T06:05:09;14.55;;;9.20;;
76714;SDS011;65644;44.990;20.288;2023-05-10T06:07:35;16.75;;;9.70;;
76714;SDS011;65644;44.990;20.288;2023-05-10T06:10:01;13.00;;;8.70;;
76714;SDS011;65644;44.990;20.288;2023-05-10T06:12:27;14.00;;;8.07;;
76714;SDS011;65644;44.990;20.288;2023-05-10T06:14:54;9.70;;;7.95;;
76714;SDS011;65644;44.990;20.288;2023-05-10T06:17:20;13.02;;;9.27;;
76714;SDS011;65644;44.990;20.288;2023-05-10T06:19:46;8.20;;;7.50;;
76714;SDS011;65644;44.990;20.288;2023-05-10T06:22:12;11.13;;;9.25;;
76714;SDS011;65644;44.990;20.288;2023-05-10T06:24:38;8.45;;;7.35;;
76714;SDS011;65644;44.990;20.288;2023-05-10T06:27:05;8.55;;;7.75;;
76714;SDS011;65644;44.990;20.288;2023-05-10T06:29:31;17.33;;;11.18;;
76714;SDS011;65644;44.990;20.288;2023-05-10T06:31:57;9.68;;;7.03;;
76714;SDS011;65644;44.990;20.288;2023-05-10T06:34:24;9.75;;;8.50;;
76714;SDS011;65644;44.990;20.288;2023-05-10T06:36:50;11.88;;;8.75;;
76714;SDS011;65644;44.990;20.288;2023-05-10T06:39:16;21.60;;;9.48;;
76714;SDS011;65644;44.990;20.288;2023-05-10T06:41:42;8.70;;;7.90;;
76714;SDS011;65644;44.990;20.288;2023-05-10T06:44:08;8.13;;;6.88;;
76714;SDS011;65644;44.990;20.288;2023-05-10T06:46:34;9.48;;;7.10;;
76714;SDS011;65644;44.990;20.288;2023-05-10T06:49:01;11.68;;;8.27;;
76714;SDS011;65644;44.990;20.288;2023-05-10T06:51:27;11.77;;;7.90;;
76714;SDS011;65644;44.990;20.288;2023-05-10T06:53:53;15.18;;;9.45;;
76714;SDS011;65644;44.990;20.288;2023-05-10T06:56:19;12.93;;;8.43;;
76714;SDS011;65644;44.990;20.288;2023-05-10T06:58:46;8.88;;;7.63;;
76714;SDS011;65644;44.990;20.288;2023-05-10T07:01:12;13.15;;;8.20;;
76714;SDS011;65644;44.990;20.288;2023-05-10T07:03:38;8.02;;;6.55;;
76714;SDS011;65644;44.990;20.288;2023-05-10T07:06:05;8.18;;;6.72;;
76714;SDS011;65644;44.990;20.288;2023-05-10T07:08:32;6.72;;;6.03;;
76714;SDS011;65644;44.990;20.288;2023-05-10T07:11:02;12.32;;;7.38;;
76714;SDS011;65644;44.990;20.288;2023-05-10T07:13:30;10.00;;;6.63;;
76714;SDS011;65644;44.990;20.288;2023-05-10T07:15:57;6.95;;;5.88;;
76714;SDS011;65644;44.990;20.288;2023-05-10T07:18:23;10.98;;;6.85;;
76714;SDS011;65644;44.990;20.288;2023-05-10T07:20:50;9.88;;;7.25;;
76714;SDS011;65644;44.990;20.288;2023-05-10T07:23:16;9.25;;;7.03;;
76714;SDS011;65644;44.990;20.288;2023-05-10T07:25:46;8.48;;;6.25;;
76714;SDS011;65644;44.990;20.288;2023-05-10T07:28:12;8.88;;;6.95;;
76714;SDS011;65644;44.990;20.288;2023-05-10T07:30:38;7.70;;;6.80;;
76714;SDS011;65644;44.990;20.288;2023-05-10T07:33:04;8.32;;;7.20;;
76714;SDS011;65644;44.990;20.288;2023-05-10T07:35:30;9.25;;;7.60;;
76714;SDS011;65644;44.990;20.288;2023-05-10T07:37:57;8.45;;;6.63;;
76714;SDS011;65644;44.990;20.288;2023-05-10T07:40:23;7.53;;;6.82;;
76714;SDS011;65644;44.990;20.288;2023-05-10T07:42:49;8.48;;;7.53;;
76714;SDS011;65644;44.990;20.288;2023-05-10T07:45:15;9.38;;;8.05;;
76714;SDS011;65644;44.990;20.288;2023-05-10T07:47:41;9.57;;;7.30;;
76714;SDS011;65644;44.990;20.288;2023-05-10T07:50:07;8.40;;;7.10;;
76714;SDS011;65644;44.990;20.288;2023-05-10T07:52:33;9.15;;;7.55;;
76714;SDS011;65644;44.990;20.288;2023-05-10T07:54:59;11.73;;;8.40;;
76714;SDS011;65644;44.990;20.288;2023-05-10T07:57:25;10.27;;;8.05;;
76714;SDS011;65644;44.990;20.288;2023-05-10T07:59:51;11.75;;;8.00;;
76714;SDS011;65644;44.990;20.288;2023-05-10T08:02:17;9.55;;;7.72;;
76714;SDS011;65644;44.990;20.288;2023-05-10T08:04:43;10.05;;;8.43;;
76714;SDS011;65644;44.990;20.288;2023-05-10T08:07:10;8.70;;;7.80;;
76714;SDS011;65644;44.990;20.288;2023-05-10T08:09:36;9.80;;;7.45;;
76714;SDS011;65644;44.990;20.288;2023-05-10T08:12:02;10.00;;;7.90;;
76714;SDS011;65644;44.990;20.288;2023-05-10T08:14:28;8.88;;;8.02;;
76714;SDS011;65644;44.990;20.288;2023-05-10T08:16:55;11.82;;;8.85;;
76714;SDS011;65644;44.990;20.288;2023-05-10T08:19:21;8.30;;;7.30;;
76714;SDS011;65644;44.990;20.288;2023-05-10T08:21:47;10.20;;;7.63;;
76714;SDS011;65644;44.990;20.288;2023-05-10T08:24:13;9.35;;;7.15;;
76714;SDS011;65644;44.990;20.288;2023-05-10T08:26:39;18.27;;;10.95;;
76714;SDS011;65644;44.990;20.288;2023-05-10T08:29:06;8.68;;;6.72;;
76714;SDS011;65644;44.990;20.288;2023-05-10T08:31:32;8.38;;;6.70;;
76714;SDS011;65644;44.990;20.288;2023-05-10T08:33:58;6.60;;;5.65;;
76714;SDS011;65644;44.990;20.288;2023-05-10T08:36:25;6.82;;;6.15;;
76714;SDS011;65644;44.990;20.288;2023-05-10T08:38:51;7.72;;;6.38;;
76714;SDS011;65644;44.990;20.288;2023-05-10T08:41:19;8.88;;;6.65;;
76714;SDS011;65644;44.990;20.288;2023-05-10T08:43:46;7.63;;;5.88;;
76714;SDS011;65644;44.990;20.288;2023-05-10T08:46:15;8.18;;;4.95;;
76714;SDS011;65644;44.990;20.288;2023-05-10T08:48:45;7.75;;;5.38;;
76714;SDS011;65644;44.990;20.288;2023-05-10T08:51:14;6.15;;;5.05;;
76714;SDS011;65644;44.990;20.288;2023-05-10T08:53:41;5.65;;;5.10;;
76714;SDS011;65644;44.990;20.288;2023-05-10T08:56:07;6.40;;;5.32;;
76714;SDS011;65644;44.990;20.288;2023-05-10T08:58:33;6.40;;;4.28;;
76714;SDS011;65644;44.990;20.288;2023-05-10T09:01:00;7.35;;;4.35;;
76714;SDS011;65644;44.990;20.288;2023-05-10T09:03:26;5.05;;;4.55;;
76714;SDS011;65644;44.990;20.288;2023-05-10T09:05:52;6.68;;;5.32;;
76714;SDS011;65644;44.990;20.288;2023-05-10T09:08:20;6.05;;;4.40;;
76714;SDS011;65644;44.990;20.288;2023-05-10T09:10:47;6.10;;;4.43;;
76714;SDS011;65644;44.990;20.288;2023-05-10T09:13:13;5.50;;;4.13;;
76714;SDS011;65644;44.990;20.288;2023-05-10T09:15:40;4.82;;;4.32;;
76714;SDS011;65644;44.990;20.288;2023-05-10T09:18:06;4.55;;;4.15;;
76714;SDS011;65644;44.990;20.288;2023-05-10T09:20:32;7.65;;;3.53;;
76714;SDS011;65644;44.990;20.288;2023-05-10T09:22:59;5.00;;;3.63;;
76714;SDS011;65644;44.990;20.288;2023-05-10T09:25:25;4.38;;;3.90;;
76714;SDS011;65644;44.990;20.288;2023-05-10T09:27:51;4.40;;;3.83;;
76714;SDS011;65644;44.990;20.288;2023-05-10T09:30:27;3.88;;;3.47;;
76714;SDS011;65644;44.990;20.288;2023-05-10T09:32:54;7.95;;;3.65;;
76714;SDS011;65644;44.990;20.288;2023-05-10T09:35:21;3.20;;;2.90;;
76714;SDS011;65644;44.990;20.288;2023-05-10T09:37:52;3.90;;;2.95;;
76714;SDS011;65644;44.990;20.288;2023-05-10T09:40:22;5.35;;;3.22;;
76714;SDS011;65644;44.990;20.288;2023-05-10T09:42:53;3.67;;;2.55;;
76714;SDS011;65644;44.990;20.288;2023-05-10T09:45:19;4.75;;;3.15;;
76714;SDS011;65644;44.990;20.288;2023-05-10T09:47:46;4.65;;;3.28;;
76714;SDS011;65644;44.990;20.288;2023-05-10T09:50:12;3.55;;;3.25;;
76714;SDS011;65644;44.990;20.288;2023-05-10T09:55:41;3.20;;;2.80;;
76714;SDS011;65644;44.990;20.288;2023-05-10T09:58:09;4.07;;;2.78;;
76714;SDS011;65644;44.990;20.288;2023-05-10T10:00:39;2.85;;;2.60;;
76714;SDS011;65644;44.990;20.288;2023-05-10T10:03:05;3.25;;;3.00;;
76714;SDS011;65644;44.990;20.288;2023-05-10T10:05:34;3.50;;;2.85;;
76714;SDS011;65644;44.990;20.288;2023-05-10T10:08:02;3.03;;;2.72;;
76714;SDS011;65644;44.990;20.288;2023-05-10T10:10:28;4.45;;;2.95;;
76714;SDS011;65644;44.990;20.288;2023-05-10T10:12:55;3.90;;;2.47;;
76714;SDS011;65644;44.990;20.288;2023-05-10T10:15:21;4.70;;;2.90;;
76714;SDS011;65644;44.990;20.288;2023-05-10T10:17:48;4.43;;;2.50;;
76714;SDS011;65644;44.990;20.288;2023-05-10T10:20:15;3.78;;;2.58;;
76714;SDS011;65644;44.990;20.288;2023-05-10T10:22:41;3.25;;;2.42;;
76714;SDS011;65644;44.990;20.288;2023-05-10T10:25:09;3.50;;;2.35;;
76714;SDS011;65644;44.990;20.288;2023-05-10T10:35:15;2.28;;;2.08;;
76714;SDS011;65644;44.990;20.288;2023-05-10T10:37:45;3.50;;;2.50;;
76714;SDS011;65644;44.990;20.288;2023-05-10T10:42:50;3.65;;;2.50;;
76714;SDS011;65644;44.990;20.288;2023-05-10T10:45:16;6.43;;;2.20;;
76714;SDS011;65644;44.990;20.288;2023-05-10T10:47:43;2.25;;;1.90;;
76714;SDS011;65644;44.990;20.288;2023-05-10T10:50:10;6.05;;;2.13;;
76714;SDS011;65644;44.990;20.288;2023-05-10T10:52:41;3.70;;;2.15;;
76714;SDS011;65644;44.990;20.288;2023-05-10T11:02:50;3.05;;;1.80;;
76714;SDS011;65644;44.990;20.288;2023-05-10T11:08:00;3.10;;;1.60;;
76714;SDS011;65644;44.990;20.288;2023-05-10T11:10:26;3.72;;;2.05;;
76714;SDS011;65644;44.990;20.288;2023-05-10T11:13:00;1.95;;;1.85;;
76714;SDS011;65644;44.990;20.288;2023-05-10T11:15:30;2.20;;;1.77;;
76714;SDS011;65644;44.990;20.288;2023-05-10T11:17:56;1.90;;;1.77;;
76714;SDS011;65644;44.990;20.288;2023-05-10T11:20:22;2.38;;;1.85;;
76714;SDS011;65644;44.990;20.288;2023-05-10T11:22:53;1.85;;;1.42;;
76714;SDS011;65644;44.990;20.288;2023-05-10T11:25:23;1.98;;;1.88;;
76714;SDS011;65644;44.990;20.288;2023-05-10T11:27:52;2.20;;;2.00;;
76714;SDS011;65644;44.990;20.288;2023-05-10T11:30:18;3.58;;;1.60;;
76714;SDS011;65644;44.990;20.288;2023-05-10T11:32:44;1.48;;;1.30;;
76714;SDS011;65644;44.990;20.288;2023-05-10T11:35:11;2.47;;;1.40;;
76714;SDS011;65644;44.990;20.288;2023-05-10T11:37:38;3.88;;;1.70;;
76714;SDS011;65644;44.990;20.288;2023-05-10T11:40:08;2.35;;;1.73;;
76714;SDS011;65644;44.990;20.288;2023-05-10T11:42:37;3.00;;;1.80;;
76714;SDS011;65644;44.990;20.288;2023-05-10T11:45:04;3.78;;;1.50;;
76714;SDS011;65644;44.990;20.288;2023-05-10T11:47:30;2.53;;;1.20;;
76714;SDS011;65644;44.990;20.288;2023-05-10T11:49:56;3.22;;;1.33;;
76714;SDS011;65644;44.990;20.288;2023-05-10T11:52:23;1.17;;;1.10;;
76714;SDS011;65644;44.990;20.288;2023-05-10T11:54:53;1.52;;;1.40;;
76714;SDS011;65644;44.990;20.288;2023-05-10T11:57:19;2.70;;;1.67;;
76714;SDS011;65644;44.990;20.288;2023-05-10T11:59:46;4.10;;;1.48;;
76714;SDS011;65644;44.990;20.288;2023-05-10T12:02:15;3.22;;;1.80;;
76714;SDS011;65644;44.990;20.288;2023-05-10T12:04:41;2.90;;;1.70;;
76714;SDS011;65644;44.990;20.288;2023-05-10T12:07:08;3.17;;;1.50;;
76714;SDS011;65644;44.990;20.288;2023-05-10T12:09:34;3.08;;;1.25;;
76714;SDS011;65644;44.990;20.288;2023-05-10T12:12:00;1.83;;;1.45;;
76714;SDS011;65644;44.990;20.288;2023-05-10T12:14:27;1.40;;;1.13;;
76714;SDS011;65644;44.990;20.288;2023-05-10T12:16:58;4.10;;;1.88;;
76714;SDS011;65644;44.990;20.288;2023-05-10T12:19:24;5.88;;;2.35;;
76714;SDS011;65644;44.990;20.288;2023-05-10T12:21:50;2.40;;;2.00;;
76714;SDS011;65644;44.990;20.288;2023-05-10T12:24:16;3.00;;;1.80;;
76714;SDS011;65644;44.990;20.288;2023-05-10T12:26:43;3.85;;;1.63;;
76714;SDS011;65644;44.990;20.288;2023-05-10T12:29:17;7.63;;;2.65;;
76714;SDS011;65644;44.990;20.288;2023-05-10T12:31:57;2.15;;;1.58;;
76714;SDS011;65644;44.990;20.288;2023-05-10T12:34:30;3.97;;;2.60;;
76714;SDS011;65644;44.990;20.288;2023-05-10T12:36:56;4.50;;;1.95;;
76714;SDS011;65644;44.990;20.288;2023-05-10T12:39:23;2.85;;;1.88;;
76714;SDS011;65644;44.990;20.288;2023-05-10T12:41:50;3.35;;;1.52;;
76714;SDS011;65644;44.990;20.288;2023-05-10T12:44:16;4.53;;;1.95;;
76714;SDS011;65644;44.990;20.288;2023-05-10T12:46:42;3.63;;;1.88;;
76714;SDS011;65644;44.990;20.288;2023-05-10T12:49:08;3.55;;;1.98;;
76714;SDS011;65644;44.990;20.288;2023-05-10T12:51:35;2.92;;;1.90;;
76714;SDS011;65644;44.990;20.288;2023-05-10T12:54:02;3.00;;;2.13;;
76714;SDS011;65644;44.990;20.288;2023-05-10T12:56:28;4.20;;;2.60;;
76714;SDS011;65644;44.990;20.288;2023-05-10T12:58:54;4.25;;;1.92;;
76714;SDS011;65644;44.990;20.288;2023-05-10T13:01:20;4.63;;;2.47;;
76714;SDS011;65644;44.990;20.288;2023-05-10T13:03:46;4.45;;;2.00;;
76714;SDS011;65644;44.990;20.288;2023-05-10T13:06:13;5.57;;;2.33;;
76714;SDS011;65644;44.990;20.288;2023-05-10T13:08:39;4.88;;;2.78;;
76714;SDS011;65644;44.990;20.288;2023-05-10T13:11:05;5.57;;;2.75;;
76714;SDS011;65644;44.990;20.288;2023-05-10T13:13:31;5.07;;;2.92;;
76714;SDS011;65644;44.990;20.288;2023-05-10T13:15:57;4.38;;;2.22;;
76714;SDS011;65644;44.990;20.288;2023-05-10T13:18:23;8.75;;;3.70;;
76714;SDS011;65644;44.990;20.288;2023-05-10T13:20:51;6.00;;;2.50;;
76714;SDS011;65644;44.990;20.288;2023-05-10T13:23:17;9.18;;;3.78;;
76714;SDS011;65644;44.990;20.288;2023-05-10T13:25:43;11.52;;;5.20;;
76714;SDS011;65644;44.990;20.288;2023-05-10T13:28:09;4.57;;;2.38;;
76714;SDS011;65644;44.990;20.288;2023-05-10T13:30:35;14.55;;;5.05;;
76714;SDS011;65644;44.990;20.288;2023-05-10T13:33:01;8.80;;;2.47;;
76714;SDS011;65644;44.990;20.288;2023-05-10T13:35:27;6.88;;;2.55;;
76714;SDS011;65644;44.990;20.288;2023-05-10T13:37:53;11.95;;;4.70;;
76714;SDS011;65644;44.990;20.288;2023-05-10T13:40:22;8.75;;;3.95;;
76714;SDS011;65644;44.990;20.288;2023-05-10T13:42:48;2.17;;;1.27;;
76714;SDS011;65644;44.990;20.288;2023-05-10T13:45:14;21.02;;;6.18;;
76714;SDS011;65644;44.990;20.288;2023-05-10T13:47:41;13.93;;;5.10;;
76714;SDS011;65644;44.990;20.288;2023-05-10T13:50:07;14.68;;;5.60;;
76714;SDS011;65644;44.990;20.288;2023-05-10T13:52:33;16.38;;;5.88;;
76714;SDS011;65644;44.990;20.288;2023-05-10T13:54:59;15.15;;;5.60;;
76714;SDS011;65644;44.990;20.288;2023-05-10T13:57:25;12.73;;;5.22;;
76714;SDS011;65644;44.990;20.288;2023-05-10T13:59:51;11.05;;;4.03;;
76714;SDS011;65644;44.990;20.288;2023-05-10T14:02:18;4.22;;;2.45;;
76714;SDS011;65644;44.990;20.288;2023-05-10T14:04:44;6.57;;;2.65;;
76714;SDS011;65644;44.990;20.288;2023-05-10T14:07:10;14.45;;;5.43;;
76714;SDS011;65644;44.990;20.288;2023-05-10T14:09:36;11.77;;;4.45;;
76714;SDS011;65644;44.990;20.288;2023-05-10T14:12:02;7.22;;;3.33;;
76714;SDS011;65644;44.990;20.288;2023-05-10T14:14:28;7.80;;;3.75;;
76714;SDS011;65644;44.990;20.288;2023-05-10T14:16:54;2.97;;;1.65;;
76714;SDS011;65644;44.990;20.288;2023-05-10T14:19:20;6.10;;;2.15;;
76714;SDS011;65644;44.990;20.288;2023-05-10T14:21:47;11.13;;;5.63;;
76714;SDS011;65644;44.990;20.288;2023-05-10T14:24:13;10.60;;;4.72;;
76714;SDS011;65644;44.990;20.288;2023-05-10T14:26:39;14.75;;;6.05;;
76714;SDS011;65644;44.990;20.288;2023-05-10T14:29:05;13.57;;;5.68;;
76714;SDS011;65644;44.990;20.288;2023-05-10T14:31:31;13.23;;;5.30;;
76714;SDS011;65644;44.990;20.288;2023-05-10T14:33:57;9.55;;;4.05;;
76714;SDS011;65644;44.990;20.288;2023-05-10T14:36:24;11.55;;;5.93;;
76714;SDS011;65644;44.990;20.288;2023-05-10T14:38:50;5.30;;;2.95;;
76714;SDS011;65644;44.990;20.288;2023-05-10T14:41:17;8.05;;;4.95;;
76714;SDS011;65644;44.990;20.288;2023-05-10T14:43:43;11.38;;;5.65;;
76714;SDS011;65644;44.990;20.288;2023-05-10T14:46:09;8.73;;;5.00;;
76714;SDS011;65644;44.990;20.288;2023-05-10T14:48:35;13.00;;;6.47;;
76714;SDS011;65644;44.990;20.288;2023-05-10T14:51:01;4.75;;;3.20;;
76714;SDS011;65644;44.990;20.288;2023-05-10T14:53:28;6.35;;;4.18;;
76714;SDS011;65644;44.990;20.288;2023-05-10T14:55:54;3.85;;;2.28;;
76714;SDS011;65644;44.990;20.288;2023-05-10T14:58:20;2.13;;;1.75;;
76714;SDS011;65644;44.990;20.288;2023-05-10T15:00:46;5.15;;;3.40;;
76714;SDS011;65644;44.990;20.288;2023-05-10T15:03:12;4.95;;;3.35;;